Time;durP1;ratioP1;P1;durP2;ratioP2;P2;SDS_P1;SDS_P2;PMS_P1;PMS_P2;Temp;Humidity;BMP_temperature;BMP_pressure;BME280_temperature;BME280_humidity;BME280_pressure;Samples;Min_cycle;Max_cycle;Signal;HPM_P1;HPM_P2
2022/07/20 00:03:14;;;;;;;10.75;7.93;;;;;;;;;;10483930;28;20222;-79
2022/07/20 00:14:16;;;;;;;15.05;8.95;;;;;;;;;;10483551;28;20188;-80
2022/07/20 00:19:37;;;;;;;12.60;8.35;;;;;;;;;;10483850;28;20192;-79
2022/07/20 00:24:59;;;;;;;16.55;9.73;;;;;;;;;;10467757;28;20299;-80
2022/07/20 00:30:21;;;;;;;13.52;9.35;;;;;;;;;;10467747;28;20536;-80
2022/07/20 00:35:43;;;;;;;12.43;8.38;;;;;;;;;;10441841;28;20188;-86
2022/07/20 00:41:04;;;;;;;12.90;9.65;;;;;;;;;;10462950;28;20200;-84
2022/07/20 00:46:26;;;;;;;14.32;9.82;;;;;;;;;;10481727;28;20452;-85
2022/07/20 00:51:49;;;;;;;12.80;8.60;;;;;;;;;;10481865;28;20192;-82
2022/07/20 00:57:10;;;;;;;13.40;9.52;;;18.50;1.00;;;;;;10485247;28;20231;-84
2022/07/20 01:02:31;;;;;;;12.70;8.55;;;18.70;1.00;;;;;;10481258;28;20211;-86
2022/07/20 01:07:53;;;;;;;12.85;8.98;;;18.50;1.00;;;;;;10480194;28;20199;-81
2022/07/20 01:13:14;;;;;;;13.43;9.15;;;18.50;1.90;;;;;;10480510;28;20261;-86
2022/07/20 01:18:36;;;;;;;16.40;9.38;;;18.40;5.60;;;;;;10480308;28;20215;-86
2022/07/20 01:23:57;;;;;;;14.57;8.65;;;;;;;;;;10483094;28;20424;-85
2022/07/20 01:29:19;;;;;;;15.48;8.75;;;18.20;1.00;;;;;;10465680;28;20199;-83
2022/07/20 01:34:41;;;;;;;10.55;8.20;;;18.20;1.00;;;;;;10479744;28;20203;-85
2022/07/20 01:40:02;;;;;;;12.95;9.18;;;18.10;1.00;;;;;;10468062;28;20549;-85
2022/07/20 01:45:24;;;;;;;14.13;8.88;;;18.00;1.00;;;;;;10465368;28;20587;-86
2022/07/20 01:50:45;;;;;;;12.93;9.13;;;17.90;4.80;;;;;;10481497;28;20215;-86
2022/07/20 01:56:06;;;;;;;14.52;8.95;;;18.00;12.10;;;;;;10481776;28;20207;-84
2022/07/20 02:01:27;;;;;;;12.65;8.77;;;18.00;14.90;;;;;;10512266;28;20205;-85
2022/07/20 02:06:49;;;;;;;14.05;8.82;;;17.90;1.00;;;;;;10480948;28;21424;-86
2022/07/20 02:12:10;;;;;;;14.88;9.30;;;17.90;5.90;;;;;;10479223;28;20223;-86
2022/07/20 02:17:32;;;;;;;12.80;8.35;;;17.80;4.70;;;;;;10477962;28;20183;-80
2022/07/20 02:22:53;;;;;;;11.02;8.85;;;;;;;;;;10477631;28;20419;-80
2022/07/20 02:28:14;;;;;;;12.90;8.27;;;17.60;8.60;;;;;;10478516;28;20197;-82
2022/07/20 02:33:36;;;;;;;11.98;9.02;;;17.60;1.00;;;;;;10477468;28;20513;-80
2022/07/20 02:38:57;;;;;;;13.02;9.15;;;17.60;1.00;;;;;;10476986;28;20197;-80
2022/07/20 02:44:18;;;;;;;13.93;9.77;;;17.50;6.80;;;;;;10476989;28;20229;-79
2022/07/20 02:49:40;;;;;;;11.13;9.32;;;17.50;25.50;;;;;;10452380;28;20224;-81
2022/07/20 02:55:01;;;;;;;12.00;9.02;;;17.50;13.40;;;;;;10457439;28;20195;-79
2022/07/20 03:00:24;;;;;;;9.95;7.47;;;17.50;15.20;;;;;;10481232;28;20199;-85
2022/07/20 03:05:45;;;;;;;10.52;7.20;;;17.40;3.10;;;;;;10493291;28;20404;-85
2022/07/20 03:11:06;;;;;;;8.77;7.00;;;17.30;1.30;;;;;;10476949;28;20239;-85
2022/07/20 03:16:28;;;;;;;11.77;7.57;;;17.30;1.00;;;;;;10477309;28;20238;-85
2022/07/20 03:21:50;;;;;;;11.57;7.18;;;17.30;1.00;;;;;;10435043;28;20192;-83
2022/07/20 03:27:12;;;;;;;10.82;6.95;;;17.30;1.00;;;;;;10454730;28;20199;-80
2022/07/20 03:32:34;;;;;;;13.32;8.50;;;17.30;1.00;;;;;;10484678;28;20195;-85
2022/07/20 03:37:56;;;;;;;11.23;7.88;;;17.30;1.00;;;;;;10483981;28;20196;-84
2022/07/20 03:43:17;;;;;;;9.77;7.00;;;17.40;1.00;;;;;;10485135;28;20529;-80
2022/07/20 03:48:38;;;;;;;11.75;7.40;;;17.40;1.00;;;;;;10484839;28;20328;-80
2022/07/20 03:54:00;;;;;;;8.55;7.25;;;17.40;1.00;;;;;;10486187;28;20245;-86
2022/07/20 03:59:21;;;;;;;9.05;6.63;;;17.60;1.00;;;;;;10495368;28;20196;-80
2022/07/20 04:04:43;;;;;;;9.23;6.53;;;17.70;1.00;;;;;;10483479;28;20422;-86
2022/07/20 04:10:04;;;;;;;9.35;7.10;;;17.80;1.00;;;;;;10483254;28;20234;-85
2022/07/20 04:15:26;;;;;;;17.25;9.88;;;17.90;1.00;;;;;;10484128;28;20198;-81
2022/07/20 04:20:47;;;;;;;22.80;11.13;;;17.90;1.00;;;;;;10482616;28;20196;-80
2022/07/20 04:26:08;;;;;;;18.15;9.05;;;18.00;1.00;;;;;;10482107;28;20219;-83
2022/07/20 04:31:30;;;;;;;15.38;8.20;;;18.00;1.00;;;;;;10483427;28;20192;-83
2022/07/20 04:36:51;;;;;;;8.60;6.72;;;18.10;1.00;;;;;;10470575;28;20226;-86
2022/07/20 04:42:13;;;;;;;8.95;6.85;;;18.20;1.00;;;;;;10482019;28;20238;-84
2022/07/20 04:47:34;;;;;;;12.15;8.35;;;18.30;1.00;;;;;;10442591;28;20246;-82
2022/07/20 04:52:56;;;;;;;13.50;8.50;;;18.40;1.00;;;;;;10442122;28;20436;-85
2022/07/20 04:58:17;;;;;;;17.58;9.98;;;18.50;1.00;;;;;;10477754;28;20249;-81
2022/07/20 05:03:39;;;;;;;14.50;9.15;;;18.60;1.00;;;;;;10469130;28;20234;-82
2022/07/20 05:09:00;;;;;;;12.65;8.73;;;18.80;1.00;;;;;;10480822;28;20196;-83
2022/07/20 05:14:21;;;;;;;14.38;9.15;;;19.00;1.00;;;;;;10466568;28;20191;-82
2022/07/20 05:19:43;;;;;;;14.23;9.80;;;19.20;1.00;;;;;;10483010;28;20193;-85
2022/07/20 05:25:04;;;;;;;20.95;12.48;;;19.40;1.00;;;;;;10480075;28;20538;-82
2022/07/20 05:30:26;;;;;;;18.40;10.32;;;19.50;1.00;;;;;;10480161;28;20264;-85
2022/07/20 05:35:49;;;;;;;16.90;11.32;;;19.70;1.00;;;;;;10465184;28;20195;-86
2022/07/20 05:41:11;;;;;;;17.67;10.48;;;19.90;1.00;;;;;;10479628;28;20359;-83
2022/07/20 05:46:32;;;;;;;18.30;11.38;;;20.10;1.00;;;;;;10493161;28;20295;-79
2022/07/20 05:51:53;;;;;;;16.33;11.88;;;20.30;1.00;;;;;;10480707;28;20428;-80
2022/07/20 05:57:15;;;;;;;13.00;8.55;;;20.50;1.00;;;;;;10479291;28;20195;-80
2022/07/20 06:02:36;;;;;;;12.93;8.18;;;20.70;99.90;;;;;;10478881;28;20564;-81
2022/07/20 06:08:00;;;;;;;12.20;7.70;;;20.90;99.90;;;;;;10479056;28;20222;-80
2022/07/20 06:13:21;;;;;;;9.00;6.28;;;21.10;99.90;;;;;;10478160;28;20235;-80
2022/07/20 06:18:42;;;;;;;8.18;5.50;;;21.30;50.10;;;;;;10463482;28;20191;-83
2022/07/20 06:24:04;;;;;;;8.85;5.95;;;21.50;1.00;;;;;;10478061;28;20223;-85
2022/07/20 06:29:26;;;;;;;7.20;5.63;;;21.90;1.00;;;;;;10463883;28;20267;-85
2022/07/20 06:34:47;;;;;;;6.88;5.10;;;22.30;99.90;;;;;;10477701;28;20221;-87
2022/07/20 06:40:09;;;;;;;7.38;5.25;;;22.50;1.00;;;;;;10463266;28;20376;-86
2022/07/20 06:45:30;;;;;;;5.97;4.80;;;23.00;99.90;;;;;;10476743;28;20235;-81
2022/07/20 06:50:52;;;;;;;6.88;4.97;;;23.70;1.00;;;;;;10477994;28;20187;-81
2022/07/20 06:56:32;;;;;;;6.60;4.85;;;24.40;74.70;;;;;;10477829;28;20211;-82
2022/07/20 07:01:54;;;;;;;7.80;4.68;;;25.20;61.60;;;;;;10478949;28;20211;-83
2022/07/20 07:07:15;;;;;;;5.88;4.28;;;25.90;52.30;;;;;;10488035;28;20203;-81
2022/07/20 07:12:37;;;;;;;6.38;4.93;;;26.10;47.70;;;;;;10461834;28;20557;-80
2022/07/20 07:17:59;;;;;;;9.50;4.13;;;26.50;43.90;;;;;;10448122;28;20289;-80
2022/07/20 07:23:22;;;;;;;8.27;5.13;;;27.00;40.90;;;;;;10480353;28;20253;-86
2022/07/20 07:28:45;;;;;;;31.15;5.72;;;27.20;39.50;;;;;;10481130;28;20215;-80
2022/07/20 07:34:07;;;;;;;8.50;4.30;;;27.70;36.20;;;;;;10478967;28;20203;-79
2022/07/20 07:39:29;;;;;;;7.15;4.50;;;28.20;34.50;;;;;;10480007;28;20222;-82
2022/07/20 07:44:51;;;;;;;6.43;4.25;;;28.50;30.70;;;;;;10479418;28;20290;-81
2022/07/20 07:50:13;;;;;;;8.70;4.35;;;28.80;28.20;;;;;;10475958;28;20271;-85
2022/07/20 07:55:35;;;;;;;6.40;4.10;;;29.20;27.90;;;;;;10447339;28;20513;-84
2022/07/20 08:00:57;;;;;;;5.28;4.20;;;29.50;26.50;;;;;;10475545;28;20223;-84
2022/07/20 08:06:18;;;;;;;4.40;3.92;;;30.00;24.80;;;;;;10448381;28;20250;-87
2022/07/20 08:11:40;;;;;;;5.80;4.10;;;30.40;24.70;;;;;;10460508;28;20258;-84
2022/07/20 08:17:01;;;;;;;5.68;4.07;;;30.60;22.10;;;;;;10463016;28;20187;-80
2022/07/20 08:22:23;;;;;;;5.85;4.88;;;31.00;21.10;;;;;;10477788;28;20195;-82
2022/07/20 08:27:45;;;;;;;5.20;4.68;;;31.20;20.50;;;;;;10480618;28;20195;-79
2022/07/20 08:33:08;;;;;;;5.60;4.97;;;31.70;19.90;;;;;;10492782;28;20257;-80
2022/07/20 08:38:29;;;;;;;8.13;4.63;;;31.90;19.00;;;;;;10478767;28;20196;-82
2022/07/20 08:43:51;;;;;;;5.72;5.13;;;31.90;18.70;;;;;;10478567;28;20306;-82
2022/07/20 08:49:14;;;;;;;7.43;4.93;;;32.30;17.50;;;;;;10461222;28;20192;-81
2022/07/20 08:54:35;;;;;;;6.97;5.47;;;32.70;17.00;;;;;;10477659;28;20204;-80
2022/07/20 08:59:57;;;;;;;7.65;5.30;;;32.80;16.70;;;;;;10491506;28;20208;-83
2022/07/20 09:05:20;;;;;;;6.55;5.43;;;33.30;17.00;;;;;;10475544;28;20273;-82
2022/07/20 09:10:46;;;;;;;7.93;5.20;;;33.50;15.20;;;;;;10474230;28;20338;-83
2022/07/20 09:16:10;;;;;;;6.75;5.20;;;33.60;14.60;;;;;;10477302;28;20206;-83
2022/07/20 09:21:32;;;;;;;8.13;5.95;;;33.70;14.10;;;;;;10475656;28;20243;-80
2022/07/20 09:27:04;;;;;;;12.63;5.63;;;33.70;14.20;;;;;;10474224;28;20229;-89
2022/07/20 09:32:26;;;;;;;7.25;5.45;;;33.60;14.60;;;;;;10476905;28;20203;-82
2022/07/20 09:37:48;;;;;;;5.38;4.82;;;34.00;13.90;;;;;;10474290;28;20203;-83
2022/07/20 09:43:34;;;;;;;6.03;5.00;;;34.10;13.90;;;;;;10476951;28;20273;-84
2022/07/20 09:48:58;;;;;;;8.43;4.65;;;34.30;12.70;;;;;;10473376;28;20249;-84
2022/07/20 09:54:20;;;;;;;6.93;5.13;;;34.50;12.70;;;;;;10474032;28;20204;-83
2022/07/20 09:59:46;;;;;;;6.70;5.20;;;34.70;12.10;;;;;;10470092;28;20291;-83
2022/07/20 10:05:08;;;;;;;8.18;5.80;;;;;;;;;;10473277;28;20236;-84
2022/07/20 10:10:55;;;;;;;5.65;4.78;;;34.80;10.70;;;;;;10472094;28;20228;-84
2022/07/20 10:16:36;;;;;;;10.27;5.45;;;35.00;11.80;;;;;;10458677;28;20202;-84
2022/07/20 10:21:58;;;;;;;7.40;5.25;;;35.30;10.90;;;;;;10474496;28;20204;-84
2022/07/20 10:27:26;;;;;;;7.10;5.20;;;35.40;9.60;;;;;;10472828;28;20419;-84
2022/07/20 10:32:59;;;;;;;6.32;4.47;;;35.60;10.00;;;;;;10472848;28;20216;-84
2022/07/20 10:38:21;;;;;;;5.75;4.43;;;35.50;9.80;;;;;;10474366;28;20286;-83
2022/07/20 10:43:42;;;;;;;5.53;4.72;;;35.60;9.60;;;;;;10457395;28;20226;-83
2022/07/20 10:49:04;;;;;;;5.18;4.65;;;35.70;9.60;;;;;;10447271;28;20788;-84
2022/07/20 10:54:31;;;;;;;6.60;4.70;;;35.80;9.20;;;;;;10457703;28;20199;-83
2022/07/20 11:00:08;;;;;;;9.38;4.38;;;35.80;8.80;;;;;;10475591;28;20211;-83
2022/07/20 11:05:30;;;;;;;7.10;4.13;;;36.00;9.20;;;;;;10473817;28;20231;-84
2022/07/20 11:10:52;;;;;;;5.90;4.78;;;;;;;;;;10471458;28;20235;-84
2022/07/20 11:16:16;;;;;;;8.52;4.75;;;36.10;7.30;;;;;;10471224;28;20227;-85
2022/07/20 11:21:40;;;;;;;5.28;4.47;;;36.20;8.40;;;;;;10456933;28;20203;-85
2022/07/20 11:27:16;;;;;;;5.95;4.65;;;36.30;7.60;;;;;;10471484;28;20227;-85
2022/07/20 11:32:52;;;;;;;6.30;4.50;;;36.10;7.90;;;;;;10470894;28;20275;-84
2022/07/20 11:38:13;;;;;;;9.95;5.05;;;36.20;7.40;;;;;;10471707;28;20386;-83
2022/07/20 11:43:35;;;;;;;8.15;5.47;;;36.30;7.40;;;;;;10470004;28;20224;-85
2022/07/20 11:49:02;;;;;;;5.15;4.63;;;36.20;7.00;;;;;;10473692;28;20196;-89
2022/07/20 11:54:42;;;;;;;6.07;5.32;;;36.20;7.20;;;;;;10452242;28;20231;-86
2022/07/20 12:00:05;;;;;;;7.88;5.65;;;36.10;7.10;;;;;;10494260;28;20246;-83
2022/07/20 12:05:33;;;;;;;6.60;4.88;;;35.90;7.70;;;;;;10484193;28;20259;-84
2022/07/20 12:10:55;;;;;;;7.95;5.05;;;35.60;7.00;;;;;;10494041;28;20231;-89
2022/07/20 12:16:18;;;;;;;8.90;5.70;;;35.60;7.90;;;;;;10481073;28;20246;-79
2022/07/20 12:22:05;;;;;;;9.13;5.55;;;35.60;7.70;;;;;;10477246;28;20204;-86
2022/07/20 12:27:33;;;;;;;9.10;5.07;;;35.80;7.60;;;;;;10441219;28;20249;-84
2022/07/20 12:33:15;;;;;;;11.77;6.07;;;35.80;7.80;;;;;;10462349;28;20253;-84
2022/07/20 12:38:37;;;;;;;7.82;5.53;;;35.50;7.60;;;;;;10476003;28;20207;-80
2022/07/20 12:43:58;;;;;;;6.68;6.05;;;35.30;8.80;;;;;;10476486;28;20235;-81
2022/07/20 12:49:25;;;;;;;7.07;4.85;;;35.50;8.10;;;;;;10478627;28;20215;-81
2022/07/20 12:54:47;;;;;;;8.90;5.75;;;35.40;7.80;;;;;;10459842;28;20212;-83
2022/07/20 13:00:48;;;;;;;7.82;6.07;;;35.30;8.50;;;;;;10476052;28;20196;-83
2022/07/20 13:06:10;;;;;;;8.30;5.68;;;35.30;8.30;;;;;;10475533;28;20238;-82
2022/07/20 13:11:31;;;;;;;7.13;5.32;;;35.40;8.50;;;;;;10461136;28;20615;-85
2022/07/20 13:16:54;;;;;;;7.63;5.68;;;35.40;8.00;;;;;;10460173;28;20207;-83
2022/07/20 13:22:15;;;;;;;6.18;4.90;;;35.20;8.50;;;;;;10461278;28;20550;-82
2022/07/20 13:27:37;;;;;;;10.63;5.45;;;35.10;9.30;;;;;;10433194;28;20238;-88
2022/07/20 13:32:58;;;;;;;9.07;5.32;;;35.00;8.70;;;;;;10453161;28;20219;-81
2022/07/20 13:38:20;;;;;;;6.38;5.03;;;34.80;8.90;;;;;;10470585;28;20257;-82
2022/07/20 13:43:41;;;;;;;6.70;5.10;;;34.50;9.30;;;;;;10485218;28;20538;-81
2022/07/20 13:49:03;;;;;;;10.40;5.68;;;34.30;9.20;;;;;;10459361;28;20407;-80
2022/07/20 13:54:24;;;;;;;9.23;5.70;;;34.10;10.00;;;;;;10471847;28;20282;-80
2022/07/20 13:59:46;;;;;;;9.38;5.60;;;34.10;9.50;;;;;;10466698;28;20394;-82
2022/07/20 14:05:08;;;;;;;7.53;5.72;;;33.90;9.70;;;;;;10464473;28;20223;-82
2022/07/20 14:10:30;;;;;;;8.82;6.20;;;33.90;9.70;;;;;;10458405;28;20293;-83
2022/07/20 14:15:51;;;;;;;6.35;5.53;;;33.80;9.80;;;;;;10472137;28;20205;-84
2022/07/20 14:21:15;;;;;;;6.82;5.18;;;33.70;10.30;;;;;;10472839;28;20249;-82
2022/07/20 14:26:37;;;;;;;7.90;5.68;;;33.50;10.30;;;;;;10459182;28;20223;-82
2022/07/20 14:31:59;;;;;;;10.30;6.53;;;33.20;11.00;;;;;;10474421;28;20325;-81
2022/07/20 14:37:21;;;;;;;7.18;5.40;;;33.00;11.10;;;;;;10474227;28;20210;-82
2022/07/20 14:42:42;;;;;;;6.22;5.47;;;32.90;10.40;;;;;;10462669;28;20246;-83
2022/07/20 14:48:04;;;;;;;7.38;5.07;;;32.80;10.90;;;;;;10471866;28;20242;-84
2022/07/20 14:53:26;;;;;;;7.57;5.68;;;32.70;10.60;;;;;;10457749;28;20469;-82
2022/07/20 14:58:48;;;;;;;8.48;5.95;;;32.60;11.30;;;;;;10469289;28;20207;-81
2022/07/20 15:04:09;;;;;;;7.32;5.43;;;32.40;11.30;;;;;;10458936;28;20298;-83
2022/07/20 15:09:31;;;;;;;11.75;6.30;;;32.30;12.30;;;;;;10453007;28;20601;-82
2022/07/20 15:14:52;;;;;;;6.55;4.65;;;32.10;12.50;;;;;;10476645;28;20528;-82
2022/07/20 15:20:14;;;;;;;12.52;6.05;;;32.00;11.80;;;;;;10489124;28;20263;-83
2022/07/20 15:25:35;;;;;;;7.22;5.68;;;31.80;13.50;;;;;;10456292;28;20235;-83
2022/07/20 15:30:57;;;;;;;9.82;5.65;;;31.80;13.70;;;;;;10466825;28;20237;-84
2022/07/20 15:36:18;;;;;;;6.13;5.53;;;31.70;14.00;;;;;;10486050;28;20223;-83
2022/07/20 15:41:40;;;;;;;6.25;5.53;;;31.60;14.50;;;;;;10469610;28;20429;-81
2022/07/20 15:47:01;;;;;;;10.90;6.03;;;31.50;14.00;;;;;;10469488;28;20215;-82
2022/07/20 15:52:22;;;;;;;9.00;6.35;;;31.40;14.70;;;;;;10469710;28;20222;-80
2022/07/20 15:57:44;;;;;;;10.88;6.22;;;31.20;14.80;;;;;;10471470;28;20486;-81
2022/07/20 16:03:05;;;;;;;7.75;6.13;;;31.10;15.30;;;;;;10502648;28;20253;-81
2022/07/20 16:08:27;;;;;;;9.98;5.75;;;30.90;15.30;;;;;;10483277;28;20203;-80
2022/07/20 16:13:50;;;;;;;7.03;5.05;;;30.90;15.70;;;;;;10454887;28;20243;-80
2022/07/20 16:19:12;;;;;;;5.72;4.70;;;30.80;16.90;;;;;;10482622;28;20280;-81
2022/07/20 16:24:34;;;;;;;7.50;4.80;;;30.60;17.00;;;;;;10468518;28;20250;-83
2022/07/20 16:29:56;;;;;;;6.55;4.57;;;30.40;17.50;;;;;;10468154;28;20513;-82
2022/07/20 16:35:18;;;;;;;5.10;4.35;;;30.30;17.80;;;;;;10481533;28;20192;-81
2022/07/20 16:40:39;;;;;;;6.10;5.03;;;30.20;18.40;;;;;;10484215;28;20192;-83
2022/07/20 16:46:00;;;;;;;6.25;5.05;;;30.00;19.00;;;;;;10467477;28;20254;-83
2022/07/20 16:51:22;;;;;;;5.80;4.50;;;29.80;19.10;;;;;;10466947;28;20198;-82
2022/07/20 16:56:44;;;;;;;11.63;5.55;;;29.70;19.30;;;;;;10480682;28;20200;-82
2022/07/20 17:02:05;;;;;;;14.02;4.63;;;29.60;20.00;;;;;;10483526;28;20204;-81
2022/07/20 17:07:27;;;;;;;8.55;4.72;;;29.50;19.90;;;;;;10469117;28;20261;-81
2022/07/20 17:12:48;;;;;;;8.55;4.25;;;29.30;19.80;;;;;;10482964;28;20228;-83
2022/07/20 17:18:10;;;;;;;9.95;4.03;;;29.20;19.70;;;;;;10482960;28;20207;-83
2022/07/20 17:23:31;;;;;;;5.15;3.97;;;29.00;19.60;;;;;;10480022;28;20206;-83
2022/07/20 17:28:52;;;;;;;4.45;3.72;;;28.90;95.80;;;;;;10455330;28;20200;-82
2022/07/20 17:34:14;;;;;;;11.50;4.20;;;28.90;99.90;;;;;;10456504;28;20520;-81
2022/07/20 17:39:35;;;;;;;6.85;4.22;;;28.70;99.90;;;;;;10479593;28;20192;-82
2022/07/20 17:44:56;;;;;;;4.65;3.85;;;28.60;99.90;;;;;;10464898;28;20509;-81
2022/07/20 17:50:18;;;;;;;4.65;3.33;;;28.50;99.90;;;;;;10464443;28;20216;-81
2022/07/20 17:55:39;;;;;;;6.38;3.88;;;28.30;99.90;;;;;;10478715;28;20211;-82
2022/07/20 18:01:00;;;;;;;4.55;3.95;;;28.20;99.90;;;;;;10520414;28;20187;-80
2022/07/20 18:06:22;;;;;;;5.40;4.15;;;28.00;99.90;;;;;;10492388;28;20261;-81
2022/07/20 18:11:43;;;;;;;6.50;4.15;;;27.90;99.90;;;;;;10478369;28;20302;-81
2022/07/20 18:17:05;;;;;;;5.78;4.20;;;27.70;99.90;;;;;;10478254;28;20363;-81
2022/07/20 18:22:27;;;;;;;7.30;3.42;;;27.50;99.90;;;;;;10478244;28;20267;-81
2022/07/20 18:27:49;;;;;;;7.68;4.47;;;27.40;99.90;;;;;;10466372;28;20223;-80
2022/07/20 18:33:14;;;;;;;7.35;4.47;;;27.20;99.90;;;;;;10477375;28;20219;-80
2022/07/20 18:38:35;;;;;;;6.88;4.32;;;27.10;1.00;;;;;;10463180;28;20195;-80
2022/07/20 18:43:57;;;;;;;6.03;4.68;;;27.00;1.00;;;;;;10465634;28;20371;-81
2022/07/20 18:49:18;;;;;;;13.15;5.20;;;26.90;1.00;;;;;;10463267;28;20203;-82
2022/07/20 18:54:39;;;;;;;5.35;4.50;;;26.70;1.00;;;;;;10476823;28;20274;-83
2022/07/20 19:00:01;;;;;;;7.53;4.80;;;26.60;1.00;;;;;;10514478;28;20847;-80
2022/07/20 19:05:22;;;;;;;9.13;4.63;;;;;;;;;;10499065;28;20269;-81
2022/07/20 19:10:45;;;;;;;6.03;4.53;;;26.30;1.00;;;;;;10476316;28;20220;-81
2022/07/20 19:16:06;;;;;;;8.95;4.85;;;26.10;24.20;;;;;;10465355;28;20203;-81
2022/07/20 19:21:27;;;;;;;8.45;5.32;;;26.00;99.90;;;;;;10475851;28;20246;-83
2022/07/20 19:26:50;;;;;;;8.40;6.00;;;25.80;99.90;;;;;;10462980;28;20290;-82
2022/07/20 19:32:11;;;;;;;8.95;5.50;;;25.70;1.00;;;;;;10476743;28;20192;-83
2022/07/20 19:37:33;;;;;;;10.98;5.95;;;25.60;1.00;;;;;;10478709;28;20385;-83
2022/07/20 19:42:54;;;;;;;10.40;6.18;;;25.50;1.00;;;;;;10478304;28;20416;-83
2022/07/20 19:48:16;;;;;;;12.40;7.15;;;25.40;1.00;;;;;;10476733;28;20287;-81
2022/07/20 19:53:37;;;;;;;15.70;7.55;;;25.30;1.00;;;;;;10461977;28;20501;-82
2022/07/20 19:58:59;;;;;;;10.77;6.57;;;25.10;1.00;;;;;;10463909;28;20230;-83
2022/07/20 20:04:20;;;;;;;8.32;4.22;;;24.90;99.90;;;;;;10489501;28;20208;-83
2022/07/20 20:09:41;;;;;;;8.27;4.22;;;24.80;96.80;;;;;;10462321;28;20245;-82
2022/07/20 20:15:04;;;;;;;7.97;3.40;;;24.60;87.20;;;;;;10482536;28;20497;-82
2022/07/20 20:20:29;;;;;;;11.02;4.20;;;24.60;99.90;;;;;;10485801;28;20279;-81
2022/07/20 20:25:50;;;;;;;8.00;4.50;;;24.50;99.90;;;;;;10482820;28;20215;-84
2022/07/20 20:31:12;;;;;;;5.90;3.83;;;24.50;1.00;;;;;;10482307;28;20208;-83
2022/07/20 20:36:33;;;;;;;34.25;14.57;;;24.40;1.00;;;;;;10481498;28;20348;-83
2022/07/20 20:41:55;;;;;;;12.93;6.80;;;24.30;99.90;;;;;;10482011;28;20544;-82
2022/07/20 20:47:17;;;;;;;11.93;6.07;;;24.20;99.90;;;;;;10481406;28;20306;-81
2022/07/20 20:52:38;;;;;;;8.73;4.70;;;24.10;15.00;;;;;;10481610;28;20196;-81
2022/07/20 20:58:02;;;;;;;9.02;4.65;;;24.00;1.00;;;;;;10503210;28;20198;-82
2022/07/20 21:03:23;;;;;;;10.63;5.28;;;23.90;1.00;;;;;;10486896;28;20267;-83
2022/07/20 21:08:44;;;;;;;6.72;4.35;;;23.80;99.90;;;;;;10481296;28;20219;-81
2022/07/20 21:14:06;;;;;;;6.20;4.13;;;23.70;1.00;;;;;;10481731;28;20239;-83
2022/07/20 21:19:31;;;;;;;7.10;4.60;;;23.60;99.90;;;;;;10480498;28;20196;-82
2022/07/20 21:24:52;;;;;;;10.65;6.05;;;23.60;97.00;;;;;;10480071;28;20393;-80
2022/07/20 21:30:15;;;;;;;10.13;5.63;;;23.50;1.00;;;;;;10482264;28;20191;-83
2022/07/20 21:35:37;;;;;;;7.05;5.20;;;;;;;;;;10481017;28;20269;-82
2022/07/20 21:40:59;;;;;;;7.32;4.40;;;23.30;1.00;;;;;;10465500;28;20203;-82
2022/07/20 21:46:20;;;;;;;4.10;3.70;;;23.20;1.00;;;;;;10464926;28;20227;-82
2022/07/20 21:51:42;;;;;;;6.07;4.50;;;23.10;1.00;;;;;;10479564;28;20188;-83
2022/07/20 21:57:04;;;;;;;9.23;5.13;;;23.10;1.00;;;;;;10480880;28;20439;-80
2022/07/20 22:02:26;;;;;;;6.22;4.72;;;22.90;99.90;;;;;;10478677;28;20258;-81
2022/07/20 22:07:47;;;;;;;6.72;5.05;;;22.80;99.90;;;;;;10481050;28;20247;-81
2022/07/20 22:13:09;;;;;;;7.43;5.20;;;22.80;99.90;;;;;;10492208;28;20442;-81
2022/07/20 22:18:31;;;;;;;8.02;4.47;;;22.70;99.90;;;;;;10480577;28;20513;-82
2022/07/20 22:23:54;;;;;;;7.00;5.00;;;22.70;99.90;;;;;;10480305;28;20196;-83
2022/07/20 22:29:16;;;;;;;7.13;4.93;;;22.60;1.00;;;;;;10480604;28;20553;-83
2022/07/20 22:34:38;;;;;;;5.47;4.05;;;22.50;1.00;;;;;;10479644;28;20274;-83
2022/07/20 22:40:00;;;;;;;6.30;4.25;;;22.40;1.00;;;;;;10466187;28;20199;-82
2022/07/20 22:45:22;;;;;;;5.95;4.78;;;22.40;1.00;;;;;;10478069;28;20211;-82
2022/07/20 22:50:43;;;;;;;5.47;3.97;;;22.40;1.00;;;;;;10477331;28;20270;-82
2022/07/20 22:56:05;;;;;;;7.15;4.50;;;22.30;1.00;;;;;;10477485;28;20491;-81
2022/07/20 23:01:27;;;;;;;7.95;5.15;;;22.30;1.00;;;;;;10469135;28;20475;-82
2022/07/20 23:06:48;;;;;;;5.32;3.85;;;22.20;1.00;;;;;;10435809;28;20277;-80
2022/07/20 23:12:09;;;;;;;4.50;3.85;;;22.20;1.00;;;;;;10451695;28;20262;-81
2022/07/20 23:17:32;;;;;;;5.57;4.45;;;22.10;1.00;;;;;;10437860;28;20279;-80
2022/07/20 23:22:54;;;;;;;4.68;4.15;;;22.00;1.00;;;;;;10421169;28;20215;-80
2022/07/20 23:28:16;;;;;;;4.93;4.15;;;21.90;1.00;;;;;;10472153;28;20461;-81
2022/07/20 23:33:37;;;;;;;6.78;4.30;;;21.90;1.00;;;;;;10462290;28;20199;-80
2022/07/20 23:38:59;;;;;;;5.75;4.15;;;21.80;1.00;;;;;;10462150;28;20210;-80
2022/07/20 23:44:20;;;;;;;6.13;3.70;;;21.80;1.00;;;;;;10476177;28;20188;-81
2022/07/20 23:49:43;;;;;;;6.45;4.70;;;21.70;1.00;;;;;;10472635;28;20207;-81
2022/07/20 23:55:06;;;;;;;6.75;4.32;;;21.60;1.00;;;;;;10468886;28;20279;-82
